Oslo, Norway
Current Conditions -  °F | °C
As of 7:50 AM on Sunday 26 Oct 2014 (Local Time) from ENGM Reporting Station
Broken Clouds Broken Clouds  
Wind Chill: 50°   Ceiling: 2200
Heat Index: 50°   Visibility: 6mi
Dew Point: 43°   Wind: 21mph
Humidity: 76%   Direction: 200°SSW
Pressure: 29.68"   Gusts: NA
Location:  60.2°N, 11.08°E
Report Text: ENGM 260550Z 20018KT 9999 BKN022 10/06 Q1005 TEMPO 20020G30KT
Loading
Personal Weather Stations






























Interactive Weather Map
Tropical Storm Tracking
New forecast layout! Learn more

10-Day Weather Forecast

Advertisements
Track Severe Weather on mobile